Time;durP1;ratioP1;P1;durP2;ratioP2;P2;SDS_P1;SDS_P2;PMS_P1;PMS_P2;Temp;Humidity;BMP_temperature;BMP_pressure;BME280_temperature;BME280_humidity;BME280_pressure;Samples;Min_cycle;Max_cycle;Signal;HPM_P1;HPM_P2
2022/08/04 00:00:14;;;;;;;9.85;3.25;;;21.90;99.90;;;;;;4819992;29;20054;-76
2022/08/04 00:03:10;;;;;;;9.85;3.60;;;21.90;99.90;;;;;;4837638;29;20054;-76
2022/08/04 00:05:52;;;;;;;6.60;3.70;;;21.80;99.90;;;;;;4812641;29;20061;-76
2022/08/04 00:08:33;;;;;;;8.35;3.83;;;21.80;99.90;;;;;;4812682;29;20042;-76
2022/08/04 00:11:00;;;;;;;6.80;3.13;;;21.70;99.90;;;;;;4813109;29;20115;-76
2022/08/04 00:13:30;;;;;;;7.38;3.50;;;21.70;99.90;;;;;;4809798;29;20042;-76
2022/08/04 00:16:01;;;;;;;6.22;3.15;;;21.70;99.90;;;;;;4819648;29;20133;-76
2022/08/04 00:18:37;;;;;;;9.07;3.85;;;21.70;99.90;;;;;;4804969;29;20052;-76
2022/08/04 00:21:05;;;;;;;8.90;3.60;;;21.70;99.90;;;;;;4838258;29;20046;-76
2022/08/04 00:23:34;;;;;;;12.32;3.97;;;21.60;99.90;;;;;;4807603;29;20080;-76
2022/08/04 00:26:00;;;;;;;8.38;3.85;;;21.60;99.90;;;;;;4834066;29;20087;-76
2022/08/04 00:28:27;;;;;;;9.55;3.75;;;21.60;99.90;;;;;;4816117;29;20042;-76
2022/08/04 00:30:53;;;;;;;7.88;3.83;;;21.60;99.90;;;;;;4831234;29;20042;-76
2022/08/04 00:33:19;;;;;;;11.60;3.78;;;21.50;99.90;;;;;;4804925;29;20117;-76
2022/08/04 00:35:47;;;;;;;7.45;3.75;;;21.50;99.90;;;;;;4811828;29;20135;-76
2022/08/04 00:38:16;;;;;;;6.55;3.60;;;21.50;99.90;;;;;;4803737;29;20055;-76
2022/08/04 00:40:47;;;;;;;10.07;3.83;;;21.50;99.90;;;;;;4811379;29;20515;-76
2022/08/04 00:43:33;;;;;;;13.85;4.07;;;21.50;99.90;;;;;;4822556;29;20050;-76
2022/08/04 00:46:39;;;;;;;12.07;4.00;;;21.40;99.90;;;;;;4811331;29;20433;-76
2022/08/04 00:49:40;;;;;;;8.00;4.22;;;21.40;99.90;;;;;;4815519;29;20049;-76
2022/08/04 00:52:17;;;;;;;12.63;4.40;;;21.40;99.90;;;;;;4798066;29;20051;-76
2022/08/04 00:55:02;;;;;;;11.57;4.28;;;21.40;99.90;;;;;;4837001;29;20050;-76
2022/08/04 00:57:40;;;;;;;10.43;3.80;;;21.30;99.90;;;;;;4823823;29;20054;-76
2022/08/04 01:00:14;;;;;;;7.18;4.57;;;21.30;99.90;;;;;;4829077;29;20047;-76
2022/08/04 01:03:19;;;;;;;6.70;4.28;;;21.30;99.90;;;;;;4799715;29;20156;-76
2022/08/04 01:06:14;;;;;;;11.68;4.63;;;21.30;99.90;;;;;;4818352;29;20051;-76
2022/08/04 01:09:13;;;;;;;9.52;5.10;;;21.30;99.90;;;;;;4813890;29;20373;-76
2022/08/04 01:12:17;;;;;;;9.32;4.50;;;21.30;99.90;;;;;;4804579;29;20062;-76
2022/08/04 01:15:01;;;;;;;10.88;4.82;;;21.30;99.90;;;;;;4792442;29;20055;-76
2022/08/04 01:17:32;;;;;;;8.68;4.40;;;21.30;99.90;;;;;;4809122;29;20385;-76
2022/08/04 01:20:07;;;;;;;8.80;4.68;;;21.20;99.90;;;;;;4816938;29;20528;-76
2022/08/04 01:22:33;;;;;;;8.45;4.93;;;21.20;99.90;;;;;;4809169;29;20137;-76
2022/08/04 01:25:28;;;;;;;10.68;4.93;;;21.20;99.90;;;;;;4821524;29;20145;-76
2022/08/04 01:28:03;;;;;;;7.20;4.57;;;21.20;99.90;;;;;;4808460;29;20042;-76
2022/08/04 01:30:32;;;;;;;9.50;4.85;;;21.10;99.90;;;;;;4813256;29;20442;-76
2022/08/04 01:33:08;;;;;;;8.77;4.50;;;21.10;99.90;;;;;;4820457;29;20459;-76
2022/08/04 01:35:48;;;;;;;8.95;4.72;;;21.10;99.90;;;;;;4817733;29;20046;-76
2022/08/04 01:38:23;;;;;;;6.88;4.25;;;21.10;99.90;;;;;;4802822;29;20046;-76
2022/08/04 01:40:56;;;;;;;9.52;4.55;;;21.10;99.90;;;;;;4793572;29;20066;-76
2022/08/04 01:43:22;;;;;;;8.38;4.60;;;21.00;99.90;;;;;;4826165;29;20110;-76
2022/08/04 01:45:50;;;;;;;7.03;4.28;;;21.00;99.90;;;;;;4792440;29;20050;-76
2022/08/04 01:48:21;;;;;;;10.57;4.60;;;21.00;99.90;;;;;;4814752;29;20071;-76
2022/08/04 01:50:50;;;;;;;7.45;4.00;;;21.00;99.90;;;;;;4807332;29;20046;-76
2022/08/04 01:53:18;;;;;;;11.00;4.40;;;21.00;99.90;;;;;;4813421;29;20090;-76
2022/08/04 01:55:51;;;;;;;9.43;4.82;;;20.90;99.90;;;;;;4801834;29;20543;-76
2022/08/04 01:58:22;;;;;;;8.27;4.28;;;20.90;99.90;;;;;;4819188;29;20507;-76
2022/08/04 02:01:03;;;;;;;9.57;4.30;;;20.90;99.90;;;;;;4820587;29;20133;-76
2022/08/04 02:03:30;;;;;;;7.22;4.13;;;20.80;99.90;;;;;;4809189;29;20482;-76
2022/08/04 02:06:22;;;;;;;8.77;4.88;;;20.80;99.90;;;;;;4801658;29;20081;-76
2022/08/04 02:08:56;;;;;;;10.38;4.28;;;20.80;99.90;;;;;;4814548;29;20653;-76
2022/08/04 02:11:22;;;;;;;9.75;5.40;;;20.70;99.90;;;;;;4815773;29;20121;-76
2022/08/04 02:13:57;;;;;;;11.00;6.18;;;20.70;99.90;;;;;;4798124;29;20047;-76
2022/08/04 02:16:41;;;;;;;12.83;6.00;;;20.70;99.90;;;;;;4820437;29;20050;-76
2022/08/04 02:19:28;;;;;;;12.95;6.10;;;20.60;99.90;;;;;;4800685;29;20447;-76
2022/08/04 02:22:06;;;;;;;10.95;5.80;;;20.60;99.90;;;;;;4821717;29;20182;-76
2022/08/04 02:24:32;;;;;;;11.40;6.38;;;20.60;99.90;;;;;;4818642;29;20408;-76
2022/08/04 02:26:59;;;;;;;9.77;6.03;;;20.60;99.90;;;;;;4838133;29;20043;-76
2022/08/04 02:29:36;;;;;;;8.88;6.10;;;20.60;99.90;;;;;;4834628;29;20042;-76
2022/08/04 02:32:03;;;;;;;10.32;6.28;;;20.50;99.90;;;;;;4835832;29;20054;-76
2022/08/04 02:34:41;;;;;;;12.60;6.68;;;20.50;99.90;;;;;;4813666;29;20042;-76
2022/08/04 02:37:09;;;;;;;16.05;6.82;;;20.50;99.90;;;;;;4814050;29;20126;-76
2022/08/04 02:39:36;;;;;;;9.95;6.40;;;20.40;99.90;;;;;;4816891;29;20069;-76
2022/08/04 02:42:05;;;;;;;14.48;6.50;;;20.40;99.90;;;;;;4829227;29;20058;-76
2022/08/04 02:44:31;;;;;;;10.25;6.68;;;20.30;99.90;;;;;;4823519;29;20038;-76
2022/08/04 02:46:59;;;;;;;9.45;5.57;;;20.30;99.90;;;;;;4808116;29;20044;-76
2022/08/04 02:49:25;;;;;;;12.45;5.63;;;20.30;99.90;;;;;;4820276;29;20076;-76
2022/08/04 02:51:56;;;;;;;8.35;5.72;;;20.20;99.90;;;;;;4801692;29;20046;-76
2022/08/04 02:54:26;;;;;;;10.15;5.63;;;20.20;99.90;;;;;;4815987;29;20520;-77
2022/08/04 02:56:54;;;;;;;11.13;6.35;;;20.20;99.90;;;;;;4836193;29;20103;-76
2022/08/04 02:59:24;;;;;;;8.25;5.38;;;20.20;99.90;;;;;;4801313;29;20111;-76
2022/08/04 03:01:50;;;;;;;10.70;5.60;;;20.20;99.90;;;;;;4819961;29;20129;-76
2022/08/04 03:04:40;;;;;;;9.68;5.35;;;20.10;99.90;;;;;;4799305;29;20134;-76
2022/08/04 03:07:24;;;;;;;8.88;5.30;;;20.10;99.90;;;;;;4837592;29;20062;-76
2022/08/04 03:10:04;;;;;;;9.63;5.28;;;20.10;99.90;;;;;;4814456;29;20058;-76
2022/08/04 03:12:45;;;;;;;9.70;5.13;;;20.10;99.90;;;;;;4817084;29;20047;-76
2022/08/04 03:15:19;;;;;;;8.63;5.45;;;20.00;99.90;;;;;;4801923;29;20138;-76
2022/08/04 03:17:54;;;;;;;10.45;5.10;;;20.00;99.90;;;;;;4827867;29;20069;-76
2022/08/04 03:20:26;;;;;;;10.32;6.03;;;20.00;99.90;;;;;;4805293;29;20090;-76
2022/08/04 03:23:10;;;;;;;9.32;5.57;;;20.00;99.90;;;;;;4819960;29;20056;-76
2022/08/04 03:25:48;;;;;;;10.88;6.03;;;20.00;99.90;;;;;;4807056;29;20050;-76
2022/08/04 03:28:43;;;;;;;8.80;5.60;;;20.00;99.90;;;;;;4820613;29;20050;-76
2022/08/04 03:31:18;;;;;;;13.38;6.95;;;19.90;99.90;;;;;;4837350;29;20496;-76
2022/08/04 03:34:03;;;;;;;14.15;5.90;;;19.90;99.90;;;;;;4814377;29;20432;-76
2022/08/04 03:36:54;;;;;;;10.18;5.72;;;19.90;99.90;;;;;;4801188;29;20043;-76
2022/08/04 03:39:59;;;;;;;9.90;6.38;;;19.80;99.90;;;;;;4834409;29;20069;-76
2022/08/04 03:42:36;;;;;;;10.52;5.32;;;19.80;99.90;;;;;;4825540;29;20059;-76
2022/08/04 03:45:21;;;;;;;9.85;6.13;;;19.80;99.90;;;;;;4825955;29;20042;-76
2022/08/04 03:48:18;;;;;;;10.35;5.72;;;19.80;99.90;;;;;;4819596;29;20046;-76
2022/08/04 03:53:52;;;;;;;10.00;5.78;;;19.70;99.90;;;;;;4822555;29;19924;-76
2022/08/04 03:56:53;;;;;;;9.13;6.45;;;19.70;99.90;;;;;;4801097;29;20050;-76
2022/08/04 03:59:34;;;;;;;11.95;6.53;;;19.70;99.90;;;;;;4802414;29;20059;-76
2022/08/04 04:02:23;;;;;;;9.30;6.53;;;19.70;99.90;;;;;;4809028;29;20050;-76
2022/08/04 04:04:55;;;;;;;9.68;7.18;;;19.70;99.90;;;;;;4819369;29;20488;-76
2022/08/04 04:07:59;;;;;;;9.35;6.43;;;19.70;99.90;;;;;;4818683;29;20053;-75
2022/08/04 04:10:45;;;;;;;12.10;7.35;;;19.70;99.90;;;;;;4806451;29;20121;-76
2022/08/04 04:13:49;;;;;;;16.95;7.30;;;19.70;99.90;;;;;;4814624;29;20174;-76
2022/08/04 04:16:53;;;;;;;11.52;7.10;;;19.70;99.90;;;;;;4818706;29;20129;-76
2022/08/04 04:19:25;;;;;;;11.63;6.93;;;19.70;99.90;;;;;;4807087;29;20102;-77
2022/08/04 04:21:57;;;;;;;14.43;7.28;;;19.60;99.90;;;;;;4809064;29;20143;-77
2022/08/04 04:24:48;;;;;;;10.25;6.90;;;19.60;99.90;;;;;;4819196;29;20047;-77
2022/08/04 04:27:32;;;;;;;13.48;6.80;;;19.60;99.90;;;;;;4819601;29;20176;-77
2022/08/04 04:30:10;;;;;;;9.50;6.60;;;19.50;99.90;;;;;;4802974;29;20532;-77
2022/08/04 04:33:00;;;;;;;10.60;7.50;;;19.50;99.90;;;;;;4837633;29;20054;-77
2022/08/04 04:35:38;;;;;;;13.20;7.50;;;19.60;99.90;;;;;;4812176;29;20102;-77
2022/08/04 04:38:19;;;;;;;10.60;7.10;;;19.50;99.90;;;;;;4814002;29;20121;-77
2022/08/04 04:41:05;;;;;;;16.88;9.43;;;19.50;99.90;;;;;;5084389;27;20750;-77
2022/08/04 04:43:40;;;;;;;13.25;8.27;;;19.60;99.90;;;;;;5069189;28;20040;-76
2022/08/04 04:46:20;;;;;;;11.27;7.63;;;19.50;99.90;;;;;;5079890;28;20041;-76
2022/08/04 04:49:24;;;;;;;10.43;7.90;;;19.50;99.90;;;;;;5066303;28;20055;-77
2022/08/04 04:51:54;;;;;;;12.77;8.02;;;19.50;99.90;;;;;;5067271;28;20040;-77
2022/08/04 04:54:57;;;;;;;11.65;7.50;;;19.50;99.90;;;;;;5068946;28;20068;-77
2022/08/04 04:57:25;;;;;;;9.07;7.32;;;19.60;99.90;;;;;;5058804;28;20508;-77
2022/08/04 05:00:01;;;;;;;12.30;6.78;;;19.60;99.90;;;;;;5066545;28;20044;-77
2022/08/04 05:02:58;;;;;;;9.98;6.88;;;19.60;99.90;;;;;;5083591;28;20115;-77
2022/08/04 05:05:30;;;;;;;11.80;7.15;;;19.70;99.90;;;;;;5063284;28;20040;-77
2022/08/04 05:08:02;;;;;;;10.73;6.90;;;19.70;99.90;;;;;;5051561;28;20123;-76
2022/08/04 05:11:05;;;;;;;14.68;7.30;;;19.70;99.90;;;;;;5067805;28;20079;-77
2022/08/04 05:13:50;;;;;;;13.55;6.93;;;19.70;99.90;;;;;;5067782;28;20576;-77
2022/08/04 05:16:24;;;;;;;9.05;6.90;;;19.70;99.90;;;;;;5069618;28;20036;-76
2022/08/04 05:19:02;;;;;;;12.77;7.25;;;19.80;99.90;;;;;;5066019;28;20072;-77
2022/08/04 05:21:42;;;;;;;7.88;6.45;;;19.80;99.90;;;;;;5055807;28;20037;-77
2022/08/04 05:24:11;;;;;;;11.02;6.93;;;19.90;99.90;;;;;;5049929;28;20067;-77
2022/08/04 05:26:42;;;;;;;11.57;7.03;;;19.90;99.90;;;;;;5062679;28;20032;-77
2022/08/04 05:29:12;;;;;;;14.00;6.70;;;20.00;99.90;;;;;;5066329;28;20037;-77
2022/08/04 05:31:48;;;;;;;11.50;7.10;;;20.00;99.90;;;;;;5062653;28;20120;-77
2022/08/04 05:34:20;;;;;;;10.70;7.50;;;20.10;99.90;;;;;;5064367;28;20124;-76
2022/08/04 05:36:52;;;;;;;11.95;6.88;;;20.10;99.90;;;;;;5055170;28;20037;-76
2022/08/04 05:39:29;;;;;;;14.52;7.57;;;20.10;99.90;;;;;;5023993;28;20061;-77
2022/08/04 05:41:58;;;;;;;11.88;7.68;;;20.20;99.90;;;;;;5059198;28;20041;-77
2022/08/04 05:44:26;;;;;;;10.80;7.88;;;20.20;99.90;;;;;;5031243;28;20423;-77
2022/08/04 05:46:57;;;;;;;9.48;6.80;;;20.30;99.90;;;;;;5062086;28;20397;-77
2022/08/04 05:49:23;;;;;;;11.23;6.97;;;20.30;99.90;;;;;;5046619;28;20040;-77
2022/08/04 05:51:50;;;;;;;9.82;7.85;;;20.40;99.90;;;;;;5003822;28;20068;-77
2022/08/04 05:54:17;;;;;;;10.15;7.45;;;20.40;99.90;;;;;;5033793;28;20577;-77
2022/08/04 05:56:43;;;;;;;10.75;8.00;;;20.50;99.90;;;;;;5018633;28;20073;-77
2022/08/04 05:59:11;;;;;;;12.98;8.15;;;20.50;99.90;;;;;;5022995;28;20099;-77
2022/08/04 06:01:38;;;;;;;12.35;7.97;;;20.60;99.90;;;;;;5032188;28;20432;-77
2022/08/04 06:04:05;;;;;;;15.20;9.20;;;20.70;99.90;;;;;;5017443;28;20466;-77
2022/08/04 06:06:31;;;;;;;11.82;9.68;;;20.70;99.90;;;;;;5048590;28;20041;-77
2022/08/04 06:08:57;;;;;;;14.02;9.57;;;20.80;99.90;;;;;;5015751;28;20038;-77
2022/08/04 06:11:28;;;;;;;14.20;9.43;;;20.90;99.90;;;;;;5028558;28;20095;-77
2022/08/04 06:13:57;;;;;;;14.52;8.10;;;20.90;99.90;;;;;;5031541;28;20496;-76
2022/08/04 06:16:27;;;;;;;10.63;8.02;;;21.00;99.90;;;;;;5031286;28;20052;-76
2022/08/04 06:18:56;;;;;;;10.20;8.88;;;21.10;99.90;;;;;;5006496;28;20041;-77
2022/08/04 06:21:27;;;;;;;12.20;8.15;;;21.20;99.90;;;;;;5032701;28;20029;-77
2022/08/04 06:23:54;;;;;;;11.38;8.10;;;21.30;99.90;;;;;;5029966;28;20076;-77
2022/08/04 06:26:22;;;;;;;14.02;8.10;;;21.40;99.90;;;;;;5017051;28;20030;-77
2022/08/04 06:28:50;;;;;;;10.63;8.02;;;21.50;99.90;;;;;;5007734;28;20072;-77
2022/08/04 06:31:31;;;;;;;11.02;7.82;;;21.60;99.90;;;;;;5007525;28;20034;-77
2022/08/04 06:34:02;;;;;;;11.35;7.45;;;21.80;99.90;;;;;;5006559;28;20456;-77
2022/08/04 06:36:30;;;;;;;11.82;7.40;;;21.90;99.90;;;;;;5031258;28;20042;-76
2022/08/04 06:38:58;;;;;;;12.60;7.15;;;22.10;99.90;;;;;;5025857;28;20064;-76
2022/08/04 06:41:25;;;;;;;9.73;6.68;;;22.20;99.90;;;;;;5025792;28;20048;-77
2022/08/04 06:43:51;;;;;;;11.13;6.88;;;22.40;99.90;;;;;;5028613;28;20072;-76
2022/08/04 06:46:18;;;;;;;10.68;6.65;;;22.50;99.90;;;;;;5027998;28;20080;-77
2022/08/04 06:48:45;;;;;;;12.02;6.85;;;22.80;99.90;;;;;;5014504;28;20051;-77
2022/08/04 06:51:13;;;;;;;11.20;6.53;;;23.10;99.90;;;;;;5028118;28;20165;-77
2022/08/04 06:53:39;;;;;;;10.25;5.30;;;23.60;99.90;;;;;;5027013;28;20556;-78
2022/08/04 06:56:07;;;;;;;7.10;5.25;;;23.90;99.90;;;;;;5044344;28;20041;-77
2022/08/04 06:58:34;;;;;;;10.35;5.78;;;24.30;99.90;;;;;;5012673;28;20042;-77
2022/08/04 07:01:00;;;;;;;8.65;5.65;;;24.50;99.90;;;;;;5029264;28;20045;-77
2022/08/04 07:03:28;;;;;;;10.50;5.65;;;24.80;99.90;;;;;;5015600;28;20504;-77
2022/08/04 07:05:54;;;;;;;10.00;4.75;;;25.00;99.90;;;;;;5015572;28;20075;-78
2022/08/04 07:08:21;;;;;;;7.75;4.97;;;25.20;99.90;;;;;;5025833;28;20038;-78
2022/08/04 07:10:47;;;;;;;10.25;5.03;;;25.30;99.90;;;;;;5007579;28;20053;-78
2022/08/04 07:13:14;;;;;;;8.50;4.57;;;25.40;99.90;;;;;;5030702;28;20038;-77
2022/08/04 07:15:45;;;;;;;9.15;4.60;;;25.50;99.90;;;;;;5027143;28;20386;-77
2022/08/04 07:18:11;;;;;;;8.85;5.07;;;25.70;99.90;;;;;;5037012;28;20526;-76
2022/08/04 07:20:41;;;;;;;9.50;4.25;;;26.00;99.90;;;;;;5031878;28;20064;-77
2022/08/04 07:23:09;;;;;;;12.15;5.20;;;26.20;99.90;;;;;;5029979;28;20038;-77
2022/08/04 07:25:35;;;;;;;9.90;4.93;;;26.20;99.90;;;;;;5044168;28;20473;-77
2022/08/04 07:28:01;;;;;;;9.10;4.82;;;26.30;99.90;;;;;;5031811;28;20389;-77
2022/08/04 07:30:29;;;;;;;12.98;5.15;;;26.30;99.90;;;;;;5025397;28;20042;-77
2022/08/04 07:32:55;;;;;;;7.18;4.50;;;26.30;99.90;;;;;;5021289;28;20037;-77
2022/08/04 07:35:22;;;;;;;12.73;5.32;;;26.30;99.90;;;;;;5047703;28;20581;-77
2022/08/04 07:37:47;;;;;;;9.95;4.47;;;26.30;99.90;;;;;;5015169;28;20057;-78
2022/08/04 07:40:13;;;;;;;6.25;3.90;;;26.30;99.90;;;;;;5045073;28;20061;-77
2022/08/04 07:42:39;;;;;;;10.30;4.35;;;26.30;99.90;;;;;;5034440;28;20045;-77
2022/08/04 07:45:06;;;;;;;12.88;4.22;;;26.30;99.90;;;;;;5027826;28;20091;-76
2022/08/04 07:47:32;;;;;;;9.32;3.95;;;26.40;99.90;;;;;;5032066;28;20037;-77
2022/08/04 07:49:58;;;;;;;8.80;3.83;;;26.40;99.90;;;;;;5032800;28;20046;-77
2022/08/04 07:52:25;;;;;;;6.25;3.70;;;26.50;99.90;;;;;;5015053;28;20041;-77
2022/08/04 07:54:52;;;;;;;9.75;4.32;;;26.50;99.90;;;;;;5030649;28;20041;-78
2022/08/04 07:57:19;;;;;;;9.45;4.20;;;26.60;99.90;;;;;;4999888;28;20381;-77
2022/08/04 07:59:46;;;;;;;8.50;4.50;;;26.60;99.90;;;;;;5015668;28;20083;-75
2022/08/04 08:02:13;;;;;;;7.70;4.25;;;26.70;99.90;;;;;;5031278;28;20133;-77
2022/08/04 08:04:39;;;;;;;9.82;4.40;;;26.70;99.90;;;;;;5019844;28;20041;-78
2022/08/04 08:07:06;;;;;;;7.75;4.10;;;26.70;99.90;;;;;;5031030;28;20052;-78
2022/08/04 08:09:33;;;;;;;9.02;4.40;;;26.80;99.90;;;;;;5045689;28;20050;-76
2022/08/04 08:12:00;;;;;;;7.88;4.20;;;26.90;99.90;;;;;;5033412;28;20048;-77
2022/08/04 08:14:27;;;;;;;11.00;4.38;;;26.90;99.90;;;;;;5013351;28;20047;-78
2022/08/04 08:16:53;;;;;;;14.05;4.93;;;27.00;99.90;;;;;;5002610;28;20116;-78
2022/08/04 08:19:19;;;;;;;8.18;4.38;;;27.00;99.90;;;;;;5029720;28;20625;-78
2022/08/04 08:21:50;;;;;;;11.93;4.78;;;27.00;99.90;;;;;;5024993;28;20386;-75
2022/08/04 08:24:16;;;;;;;16.98;4.95;;;27.10;99.90;;;;;;5015497;28;20033;-76
2022/08/04 08:26:42;;;;;;;10.32;5.15;;;27.10;99.90;;;;;;5022329;28;20151;-75
2022/08/04 08:29:08;;;;;;;10.32;5.00;;;27.00;99.90;;;;;;5031505;28;20432;-77
2022/08/04 08:31:34;;;;;;;12.20;5.13;;;27.00;99.90;;;;;;5028607;28;20124;-77
2022/08/04 08:34:00;;;;;;;12.95;4.85;;;27.00;99.90;;;;;;5014031;28;20120;-76
2022/08/04 08:36:35;;;;;;;7.68;4.90;;;27.00;99.90;;;;;;5021685;28;20355;-76
2022/08/04 08:39:03;;;;;;;12.68;4.80;;;26.90;99.90;;;;;;5018318;28;20149;-76
2022/08/04 08:41:47;;;;;;;10.13;4.45;;;26.80;99.90;;;;;;5031400;28;20052;-76
2022/08/04 08:44:38;;;;;;;9.68;3.85;;;26.80;99.90;;;;;;5018885;28;20038;-76
2022/08/04 08:47:31;;;;;;;7.47;4.30;;;26.80;99.90;;;;;;5016953;28;20033;-76
2022/08/04 08:50:09;;;;;;;11.32;5.00;;;26.90;99.90;;;;;;5042085;28;20041;-76
2022/08/04 08:53:04;;;;;;;8.25;5.28;;;26.90;99.90;;;;;;5015292;28;20099;-76
2022/08/04 08:55:51;;;;;;;12.30;4.18;;;27.00;99.90;;;;;;5028939;28;20390;-76
2022/08/04 08:58:38;;;;;;;7.70;4.63;;;27.00;99.90;;;;;;5028704;28;20041;-76
2022/08/04 09:01:39;;;;;;;6.95;4.20;;;27.10;99.90;;;;;;5028915;28;20401;-76
2022/08/04 09:04:30;;;;;;;10.38;4.88;;;27.20;99.90;;;;;;5012018;28;20029;-76
2022/08/04 09:07:09;;;;;;;9.82;5.30;;;27.30;99.90;;;;;;5013571;28;20037;-76
2022/08/04 09:10:09;;;;;;;10.10;5.00;;;27.20;99.90;;;;;;5028995;28;20108;-76
2022/08/04 09:12:44;;;;;;;9.82;5.00;;;27.30;99.90;;;;;;5001474;28;20049;-77
2022/08/04 09:15:32;;;;;;;12.30;4.72;;;27.40;99.90;;;;;;5029420;28;20123;-76
2022/08/04 09:18:04;;;;;;;13.05;5.00;;;27.60;99.90;;;;;;5024535;28;20096;-75
2022/08/04 09:20:38;;;;;;;9.50;4.00;;;27.50;99.90;;;;;;5031131;28;20103;-76
2022/08/04 09:23:39;;;;;;;7.93;3.63;;;27.40;99.90;;;;;;5030845;28;20033;-76
2022/08/04 09:26:42;;;;;;;12.93;3.30;;;27.40;99.90;;;;;;5027803;28;20045;-76
2022/08/04 09:29:42;;;;;;;7.07;3.15;;;27.40;99.90;;;;;;5033103;28;20042;-76
2022/08/04 09:32:22;;;;;;;7.18;3.08;;;27.30;99.90;;;;;;5029585;28;20037;-76
2022/08/04 09:35:25;;;;;;;5.55;2.60;;;27.40;99.90;;;;;;5035653;28;20045;-76
2022/08/04 09:38:17;;;;;;;11.52;2.80;;;27.40;99.90;;;;;;5031067;28;20490;-77
2022/08/04 09:41:02;;;;;;;7.35;2.70;;;27.30;99.90;;;;;;5008143;28;20088;-77
2022/08/04 09:43:44;;;;;;;4.93;2.50;;;27.30;99.90;;;;;;5030793;28;20081;-76
2022/08/04 09:46:26;;;;;;;7.15;2.33;;;27.20;99.90;;;;;;5029619;28;20064;-76
2022/08/04 09:49:09;;;;;;;8.10;2.30;;;27.20;99.90;;;;;;5032995;28;20041;-76
2022/08/04 09:51:52;;;;;;;6.43;2.45;;;27.20;99.90;;;;;;5024857;28;20076;-77
2022/08/04 09:54:57;;;;;;;4.95;2.42;;;27.10;99.90;;;;;;5032397;28;20413;-77
2022/08/04 09:57:33;;;;;;;5.65;2.10;;;27.00;99.90;;;;;;5037623;28;20042;-77
2022/08/04 10:00:05;;;;;;;4.47;2.05;;;27.10;99.90;;;;;;5028136;28;20103;-76
2022/08/04 10:02:37;;;;;;;11.02;2.53;;;27.10;99.90;;;;;;5031535;28;20037;-77
2022/08/04 10:05:07;;;;;;;10.80;2.35;;;27.00;99.90;;;;;;5031667;28;20059;-77
2022/08/04 10:08:10;;;;;;;5.55;2.30;;;27.00;99.90;;;;;;5031205;28;20033;-77
2022/08/04 10:10:40;;;;;;;8.48;1.95;;;27.00;99.90;;;;;;5034334;28;20045;-77
2022/08/04 10:13:30;;;;;;;7.68;2.17;;;27.00;99.90;;;;;;5034956;28;20091;-77
2022/08/04 10:16:24;;;;;;;5.88;2.28;;;27.00;99.90;;;;;;5018200;28;20375;-77
2022/08/04 10:18:56;;;;;;;8.05;2.53;;;27.10;99.90;;;;;;5036139;28;20052;-77
2022/08/04 10:21:52;;;;;;;14.95;2.78;;;27.10;99.90;;;;;;5034239;28;20130;-76
2022/08/04 10:24:24;;;;;;;8.13;2.63;;;27.20;99.90;;;;;;5034257;28;20052;-76
2022/08/04 10:27:19;;;;;;;9.23;2.83;;;27.30;99.90;;;;;;5014039;28;20053;-76
2022/08/04 10:29:46;;;;;;;12.00;2.50;;;27.40;99.90;;;;;;5031323;28;20060;-76
2022/08/04 10:32:26;;;;;;;5.82;2.10;;;27.40;99.90;;;;;;5025215;28;20478;-75
2022/08/04 10:35:22;;;;;;;12.73;2.40;;;27.50;99.90;;;;;;5023430;28;20445;-76
2022/08/04 10:38:05;;;;;;;9.60;2.60;;;27.50;99.90;;;;;;5033536;28;20556;-76
2022/08/04 10:40:44;;;;;;;9.80;2.45;;;27.40;99.90;;;;;;5026873;28;20532;-76
2022/08/04 10:43:34;;;;;;;6.88;2.50;;;27.50;99.90;;;;;;5013997;28;20050;-76
2022/08/04 10:46:16;;;;;;;11.98;2.70;;;27.50;99.90;;;;;;5033908;28;20099;-76
2022/08/04 10:49:08;;;;;;;6.18;2.33;;;27.50;99.90;;;;;;5015594;28;20401;-76
2022/08/04 10:51:56;;;;;;;5.18;2.00;;;27.40;99.90;;;;;;5030606;28;20405;-77
2022/08/04 10:54:51;;;;;;;6.13;2.35;;;27.50;99.90;;;;;;5030805;28;20525;-76
2022/08/04 10:57:34;;;;;;;6.25;2.15;;;27.40;99.90;;;;;;5017614;28;20037;-76
2022/08/04 11:00:13;;;;;;;6.88;2.17;;;27.40;99.90;;;;;;5016297;28;20038;-76
2022/08/04 11:02:45;;;;;;;9.45;1.85;;;27.40;99.90;;;;;;5023645;28;20046;-76
2022/08/04 11:05:38;;;;;;;5.15;1.90;;;27.40;99.90;;;;;;5030861;28;20044;-76
2022/08/04 11:08:10;;;;;;;5.00;2.25;;;27.40;99.90;;;;;;5014465;28;20505;-76
2022/08/04 11:11:07;;;;;;;7.57;1.98;;;27.40;99.90;;;;;;5029150;28;20037;-77
2022/08/04 11:13:41;;;;;;;6.00;1.80;;;27.40;99.90;;;;;;5027043;28;20042;-76
2022/08/04 11:16:16;;;;;;;8.05;1.95;;;27.40;99.90;;;;;;5022632;28;20052;-76
2022/08/04 11:19:03;;;;;;;6.07;1.55;;;27.50;99.90;;;;;;5043298;28;20044;-76
2022/08/04 11:21:32;;;;;;;5.97;1.50;;;27.50;99.90;;;;;;5022480;28;20045;-76
2022/08/04 11:24:10;;;;;;;3.17;1.58;;;27.60;99.10;;;;;;5016926;28;20061;-75
2022/08/04 11:26:55;;;;;;;8.50;1.60;;;27.50;98.70;;;;;;5030770;28;20060;-76
2022/08/04 11:29:31;;;;;;;3.17;1.52;;;27.40;98.00;;;;;;5024105;28;20601;-76
2022/08/04 11:32:01;;;;;;;5.68;1.73;;;27.30;97.70;;;;;;5010507;28;20041;-75
2022/08/04 11:34:27;;;;;;;5.45;1.33;;;27.20;97.90;;;;;;5040002;28;20049;-76
2022/08/04 11:37:02;;;;;;;3.80;1.40;;;27.00;97.70;;;;;;5029930;28;20037;-76
2022/08/04 11:39:39;;;;;;;4.07;1.50;;;26.90;97.60;;;;;;5015325;28;20054;-76
2022/08/04 11:42:17;;;;;;;5.45;1.42;;;26.80;97.70;;;;;;5021217;28;20462;-76
2022/08/04 11:44:47;;;;;;;5.40;1.70;;;26.70;97.10;;;;;;5035573;28;20143;-76
2022/08/04 11:47:29;;;;;;;3.05;1.25;;;26.60;97.30;;;;;;5039370;28;20042;-76
2022/08/04 11:50:08;;;;;;;5.70;1.45;;;26.50;97.60;;;;;;5033434;28;20053;-75
2022/08/04 11:52:39;;;;;;;4.68;1.52;;;26.40;97.50;;;;;;5022681;28;20125;-76
2022/08/04 11:55:10;;;;;;;1.88;1.25;;;26.30;97.60;;;;;;5041311;28;20080;-76
2022/08/04 11:57:36;;;;;;;3.22;1.50;;;26.30;97.90;;;;;;5004214;28;20041;-76
2022/08/04 12:00:12;;;;;;;3.40;1.25;;;26.30;97.80;;;;;;4999331;28;20038;-76
2022/08/04 12:02:56;;;;;;;3.30;1.23;;;26.20;97.50;;;;;;5000274;28;20045;-76
2022/08/04 12:05:31;;;;;;;8.15;1.38;;;26.10;97.80;;;;;;5035366;28;20042;-76
2022/08/04 12:07:59;;;;;;;1.97;1.20;;;26.00;97.70;;;;;;5006661;28;20065;-76
2022/08/04 12:10:49;;;;;;;3.05;1.20;;;25.90;97.60;;;;;;5030340;28;20107;-76
2022/08/04 12:13:27;;;;;;;3.35;1.30;;;25.80;97.60;;;;;;5006941;28;20401;-76
2022/08/04 12:16:08;;;;;;;1.95;1.20;;;25.80;98.00;;;;;;5029841;28;20049;-76
2022/08/04 12:18:53;;;;;;;2.47;1.20;;;25.80;98.20;;;;;;5023831;28;20080;-76
2022/08/04 12:21:49;;;;;;;2.42;1.40;;;25.90;98.50;;;;;;5030137;28;20068;-76
2022/08/04 12:24:26;;;;;;;2.42;1.33;;;26.00;98.50;;;;;;5032906;28;20528;-76
2022/08/04 12:26:57;;;;;;;2.80;1.45;;;26.10;98.00;;;;;;5015795;28;20034;-76
2022/08/04 12:29:30;;;;;;;1.70;1.23;;;26.20;96.90;;;;;;5014273;28;20043;-76
2022/08/04 12:31:59;;;;;;;4.18;1.15;;;26.30;96.90;;;;;;5014692;28;20095;-76
2022/08/04 12:34:44;;;;;;;3.95;1.27;;;26.30;96.50;;;;;;5029318;28;20087;-76
2022/08/04 12:37:19;;;;;;;2.83;1.17;;;26.40;96.50;;;;;;5032436;28;20389;-76
2022/08/04 12:39:50;;;;;;;3.13;1.50;;;26.50;96.10;;;;;;5033539;28;20524;-76
2022/08/04 12:42:26;;;;;;;5.50;1.40;;;26.60;96.60;;;;;;5034566;28;20049;-76
2022/08/04 12:44:53;;;;;;;3.88;1.38;;;26.60;96.10;;;;;;5032962;28;20045;-76
2022/08/04 12:47:24;;;;;;;2.75;1.38;;;26.70;96.00;;;;;;5032475;28;20049;-76
2022/08/04 12:49:51;;;;;;;1.33;1.02;;;26.70;95.80;;;;;;5032813;28;20041;-77
2022/08/04 12:52:19;;;;;;;3.42;1.20;;;27.30;96.40;;;;;;4999618;28;20045;-76
2022/08/04 12:54:50;;;;;;;2.70;1.10;;;26.90;96.00;;;;;;5032248;28;20049;-76
2022/08/04 12:57:17;;;;;;;2.83;1.23;;;27.00;96.20;;;;;;5029981;28;20551;-77
2022/08/04 12:59:44;;;;;;;3.78;1.27;;;27.30;95.90;;;;;;5015245;28;20041;-76
2022/08/04 13:02:25;;;;;;;2.50;1.02;;;27.60;95.70;;;;;;5018741;28;20037;-76
2022/08/04 13:04:53;;;;;;;2.30;1.05;;;27.90;95.10;;;;;;5035383;28;20049;-76
2022/08/04 13:07:22;;;;;;;1.73;1.02;;;28.20;95.40;;;;;;5018447;28;20053;-77
2022/08/04 13:09:50;;;;;;;3.63;1.30;;;28.50;94.50;;;;;;5033770;28;20502;-77
2022/08/04 13:12:28;;;;;;;2.83;1.42;;;28.70;93.00;;;;;;5043604;28;20505;-76
2022/08/04 13:15:13;;;;;;;3.05;1.52;;;28.70;93.30;;;;;;5036180;28;20568;-77
2022/08/04 13:18:02;;;;;;;4.38;1.50;;;28.70;91.50;;;;;;5031246;28;20045;-76
2022/08/04 13:20:34;;;;;;;5.93;1.60;;;28.70;91.90;;;;;;5026424;28;20504;-77
2022/08/04 13:23:07;;;;;;;4.30;1.40;;;28.90;92.00;;;;;;5019198;28;20041;-76
2022/08/04 13:25:38;;;;;;;4.18;1.33;;;29.10;91.70;;;;;;5040855;28;20048;-77
2022/08/04 13:28:07;;;;;;;2.70;1.35;;;29.10;90.80;;;;;;5026687;28;20037;-77
2022/08/04 13:30:33;;;;;;;2.17;1.23;;;29.00;90.60;;;;;;5021507;28;20131;-77
2022/08/04 13:33:01;;;;;;;3.72;1.90;;;29.00;90.20;;;;;;5034432;28;20084;-77